createdAt,value
2018-09-06T00:00:21.231Z,1011.52
2018-09-06T00:01:31.887Z,1011.52
2018-09-06T00:02:41.919Z,1011.47
2018-09-06T00:03:51.909Z,1011.54
2018-09-06T00:05:01.964Z,1011.51
2018-09-06T00:06:12.203Z,1011.52
2018-09-06T00:07:22.239Z,1011.51
2018-09-06T00:08:32.444Z,1011.5
2018-09-06T00:09:42.605Z,1011.46
2018-09-06T00:10:52.998Z,1011.5
2018-09-06T00:12:11.437Z,1011.5
2018-09-06T00:13:21.204Z,1011.46
2018-09-06T00:14:31.583Z,1011.45
2018-09-06T00:15:41.784Z,1011.46
2018-09-06T00:16:52.621Z,1011.46
2018-09-06T00:18:02.471Z,1011.41
2018-09-06T00:19:13.860Z,1011.45
2018-09-06T00:20:26.087Z,1011.42
2018-09-06T00:21:37.865Z,1011.45
2018-09-06T00:22:50.512Z,1011.41
2018-09-06T00:24:01.928Z,1011.43
2018-09-06T00:25:14.574Z,1011.44
2018-09-06T00:26:26.389Z,1011.4
2018-09-06T00:27:37.813Z,1011.38
2018-09-06T00:28:52.936Z,1011.38
2018-09-06T00:30:05.987Z,1011.41
2018-09-06T00:31:16.381Z,1011.37
2018-09-06T00:32:28.650Z,1011.48
2018-09-06T00:33:40.336Z,1011.38
2018-09-06T00:34:50.325Z,1011.43
2018-09-06T00:36:00.049Z,1011.43
2018-09-06T00:37:10.027Z,1011.46
2018-09-06T00:38:19.998Z,1011.42
2018-09-06T00:39:29.696Z,1011.43
2018-09-06T00:40:39.655Z,1011.44
2018-09-06T00:41:49.629Z,1011.4
2018-09-06T00:42:59.332Z,1011.38
2018-09-06T00:44:09.037Z,1011.42
2018-09-06T00:45:18.488Z,1011.37
2018-09-06T00:46:28.455Z,1011.38
2018-09-06T00:47:38.421Z,1011.37
2018-09-06T00:48:48.124Z,1011.41
2018-09-06T00:49:58.084Z,1011.41
2018-09-06T00:51:07.792Z,1011.4
2018-09-06T00:52:17.780Z,1011.39
2018-09-06T00:53:27.746Z,1011.41
2018-09-06T00:54:37.476Z,1011.45
2018-09-06T00:55:47.460Z,1011.41
2018-09-06T00:56:57.235Z,1011.42
2018-09-06T00:58:07.204Z,1011.42
2018-09-06T00:59:17.164Z,1011.39
2018-09-06T01:00:26.905Z,1011.43
2018-09-06T01:01:36.873Z,1011.39
2018-09-06T01:02:46.844Z,1011.4
2018-09-06T01:03:56.553Z,1011.36
2018-09-06T01:05:06.524Z,1011.37
2018-09-06T01:06:16.229Z,1011.3
2018-09-06T01:07:26.191Z,1011.35
2018-09-06T01:08:36.158Z,1011.3
2018-09-06T01:09:46.114Z,1011.27
2018-09-06T01:10:55.561Z,1011.31
2018-09-06T01:12:05.526Z,1011.28
2018-09-06T01:13:15.238Z,1011.29
2018-09-06T01:14:25.204Z,1011.32
2018-09-06T01:15:35.163Z,1011.27
2018-09-06T01:16:44.611Z,1011.26
2018-09-06T01:17:54.318Z,1011.25
2018-09-06T01:19:04.032Z,1011.25
2018-09-06T01:20:14.008Z,1011.23
2018-09-06T01:21:23.966Z,1011.24
2018-09-06T01:22:33.924Z,1011.21
2018-09-06T01:23:43.640Z,1011.23
2018-09-06T01:24:53.607Z,1011.24
2018-09-06T01:26:03.571Z,1011.2
2018-09-06T01:27:13.264Z,1011.22
2018-09-06T01:28:22.978Z,1011.23
2018-09-06T01:29:32.682Z,1011.18
2018-09-06T01:30:42.135Z,1011.21
2018-09-06T01:31:52.093Z,1011.2
2018-09-06T01:33:01.806Z,1011.18
2018-09-06T01:34:11.823Z,1011.21
2018-09-06T01:35:21.795Z,1011.19
2018-09-06T01:36:31.763Z,1011.17
2018-09-06T01:37:41.734Z,1011.19
2018-09-06T01:38:51.696Z,1011.22
2018-09-06T01:40:01.394Z,1011.2
2018-09-06T01:41:11.362Z,1011.16
2018-09-06T01:42:21.331Z,1011.18
2018-09-06T01:43:31.337Z,1011.18
2018-09-06T01:44:41.361Z,1011.15
2018-09-06T01:45:51.084Z,1011.15
2018-09-06T01:47:01.046Z,1011.12
2018-09-06T01:48:10.740Z,1011.1
2018-09-06T01:49:20.692Z,1011.09
2018-09-06T01:50:30.671Z,1011.12
2018-09-06T01:51:40.371Z,1011.13
2018-09-06T01:52:50.322Z,1011.09
2018-09-06T01:54:00.278Z,1011.12
2018-09-06T01:55:09.731Z,1011.12
2018-09-06T01:56:19.711Z,1011.12
2018-09-06T01:57:29.424Z,1011.14
2018-09-06T01:58:39.133Z,1011.12
2018-09-06T01:59:49.082Z,1011.13
2018-09-06T02:00:59.109Z,1011.12
2018-09-06T02:02:09.077Z,1011.1
2018-09-06T02:03:19.047Z,1011.15
2018-09-06T02:04:28.999Z,1011.12
2018-09-06T02:05:38.698Z,1011.08
2018-09-06T02:06:48.396Z,1011.1
2018-09-06T02:07:58.347Z,1011.07
2018-09-06T02:09:08.309Z,1011.1
2018-09-06T02:10:18.267Z,1011.08
2018-09-06T02:11:28.232Z,1011.06
2018-09-06T02:12:38.188Z,1011.07
2018-09-06T02:13:48.142Z,1011.03
2018-09-06T02:14:58.120Z,1011.05
2018-09-06T02:16:07.817Z,1011.02
2018-09-06T02:17:17.783Z,1011.06
2018-09-06T02:18:27.738Z,1011.03
2018-09-06T02:19:37.704Z,1011.02
2018-09-06T02:20:47.662Z,1011.02
2018-09-06T02:21:57.619Z,1011
2018-09-06T02:23:07.577Z,1011
2018-09-06T02:24:17.536Z,1011
2018-09-06T02:25:27.791Z,1010.96
2018-09-06T02:26:37.489Z,1010.96
2018-09-06T02:27:47.449Z,1010.92
2018-09-06T02:28:57.144Z,1010.93
2018-09-06T02:30:07.101Z,1010.94
2018-09-06T02:31:16.804Z,1010.9
2018-09-06T02:32:26.781Z,1010.91
2018-09-06T02:33:36.492Z,1010.88
2018-09-06T02:34:46.463Z,1010.9
2018-09-06T02:35:56.425Z,1010.94
2018-09-06T02:37:06.138Z,1010.9
2018-09-06T02:38:15.860Z,1010.91
2018-09-06T02:39:25.812Z,1010.9
2018-09-06T02:40:35.765Z,1010.92
2018-09-06T02:41:45.716Z,1010.91
2018-09-06T02:42:55.429Z,1010.87
2018-09-06T02:44:05.412Z,1010.86
2018-09-06T02:45:15.390Z,1010.85
2018-09-06T02:46:25.085Z,1010.86
2018-09-06T02:47:35.043Z,1010.79
2018-09-06T02:48:44.493Z,1010.81
2018-09-06T02:49:54.214Z,1010.8
2018-09-06T02:51:03.658Z,1010.79
2018-09-06T02:52:13.366Z,1010.75
2018-09-06T02:53:22.818Z,1010.8
2018-09-06T02:54:32.789Z,1010.76
2018-09-06T02:55:42.499Z,1010.76
2018-09-06T02:56:52.456Z,1010.74
2018-09-06T02:58:02.417Z,1010.71
2018-09-06T02:59:12.119Z,1010.73
2018-09-06T03:00:22.284Z,1010.7
2018-09-06T03:01:32.243Z,1010.7
2018-09-06T03:02:41.696Z,1010.65
2018-09-06T03:03:51.649Z,1010.68
2018-09-06T03:05:01.621Z,1010.65
2018-09-06T03:06:11.579Z,1010.67
2018-09-06T03:07:21.541Z,1010.66
2018-09-06T03:08:31.744Z,1010.62
2018-09-06T03:09:41.441Z,1010.59
2018-09-06T03:10:51.429Z,1010.61
2018-09-06T03:12:01.415Z,1010.62
2018-09-06T03:13:11.142Z,1010.6
2018-09-06T03:14:21.126Z,1010.58
2018-09-06T03:15:30.977Z,1010.61
2018-09-06T03:16:41.157Z,1010.6
2018-09-06T03:17:50.870Z,1010.59
2018-09-06T03:19:00.580Z,1010.6
2018-09-06T03:20:10.525Z,1010.58
2018-09-06T03:21:20.494Z,1010.58
2018-09-06T03:22:30.194Z,1010.57
2018-09-06T03:23:39.904Z,1010.56
2018-09-06T03:24:49.875Z,1010.55
2018-09-06T03:25:59.825Z,1010.55
2018-09-06T03:27:09.752Z,1010.55
2018-09-06T03:28:19.708Z,1010.55
2018-09-06T03:29:29.409Z,1010.55
2018-09-06T03:30:39.368Z,1010.57
2018-09-06T03:31:49.097Z,1010.55
2018-09-06T03:32:59.060Z,1010.54
2018-09-06T03:34:08.772Z,1010.57
2018-09-06T03:35:18.746Z,1010.54
2018-09-06T03:36:28.705Z,1010.55
2018-09-06T03:37:38.656Z,1010.56
2018-09-06T03:38:48.609Z,1010.52
2018-09-06T03:39:58.572Z,1010.55
2018-09-06T03:41:08.268Z,1010.55
2018-09-06T03:42:17.962Z,1010.54
2018-09-06T03:43:27.926Z,1010.59
2018-09-06T03:44:37.371Z,1010.56
2018-09-06T03:45:47.331Z,1010.57
2018-09-06T03:46:57.313Z,1010.56
2018-09-06T03:48:07.282Z,1010.58
2018-09-06T03:49:17.244Z,1010.56
2018-09-06T03:50:27.212Z,1010.57
2018-09-06T03:51:36.911Z,1010.55
2018-09-06T03:52:46.861Z,1010.55
2018-09-06T03:53:56.577Z,1010.52
2018-09-06T03:55:06.552Z,1010.52
2018-09-06T03:56:16.536Z,1010.54
2018-09-06T03:57:26.488Z,1010.56
2018-09-06T03:58:36.196Z,1010.55
2018-09-06T03:59:46.157Z,1010.54
2018-09-06T04:00:55.872Z,1010.54
2018-09-06T04:02:05.862Z,1010.53
2018-09-06T04:03:15.570Z,1010.55
2018-09-06T04:04:25.525Z,1010.55
2018-09-06T04:05:35.505Z,1010.54
2018-09-06T04:06:45.466Z,1010.53
2018-09-06T04:07:55.427Z,1010.52
2018-09-06T04:09:05.383Z,1010.55
2018-09-06T04:10:15.108Z,1010.54
2018-09-06T04:11:25.083Z,1010.5
2018-09-06T04:12:35.039Z,1010.5
2018-09-06T04:13:44.516Z,1010.53
2018-09-06T04:14:54.476Z,1010.5
2018-09-06T04:16:04.439Z,1010.49
2018-09-06T04:17:14.415Z,1010.46
2018-09-06T04:18:24.165Z,1010.48
2018-09-06T04:19:34.206Z,1010.48
2018-09-06T04:20:43.911Z,1010.43
2018-09-06T04:21:53.642Z,1010.44
2018-09-06T04:23:03.348Z,1010.41
2018-09-06T04:24:13.392Z,1010.43
2018-09-06T04:25:23.092Z,1010.4
2018-09-06T04:26:33.065Z,1010.38
2018-09-06T04:27:42.795Z,1010.43
2018-09-06T04:28:52.758Z,1010.39
2018-09-06T04:30:02.722Z,1010.41
2018-09-06T04:31:12.897Z,1010.43
2018-09-06T04:32:22.877Z,1010.42
2018-09-06T04:33:32.847Z,1010.39
2018-09-06T04:34:42.808Z,1010.4
2018-09-06T04:35:52.849Z,1010.39
2018-09-06T04:37:02.968Z,1010.38
2018-09-06T04:38:12.666Z,1010.42
2018-09-06T04:39:22.621Z,1010.4
2018-09-06T04:40:32.596Z,1010.41
2018-09-06T04:41:42.555Z,1010.45
2018-09-06T04:42:52.269Z,1010.44
2018-09-06T04:44:02.243Z,1010.45
2018-09-06T04:45:12.224Z,1010.43
2018-09-06T04:46:22.190Z,1010.43
2018-09-06T04:47:31.903Z,1010.4
2018-09-06T04:48:41.882Z,1010.37
2018-09-06T04:49:51.849Z,1010.45
2018-09-06T04:51:01.576Z,1010.42
2018-09-06T04:52:11.614Z,1010.41
2018-09-06T04:53:21.324Z,1010.43
2018-09-06T04:54:31.278Z,1010.4
2018-09-06T04:55:41.255Z,1010.39
2018-09-06T04:56:50.968Z,1010.4
2018-09-06T04:58:00.955Z,1010.39
2018-09-06T04:59:10.930Z,1010.39
2018-09-06T05:00:20.915Z,1010.43
2018-09-06T05:01:30.631Z,1010.41
2018-09-06T05:02:40.345Z,1010.39
2018-09-06T05:03:50.068Z,1010.41
2018-09-06T05:05:00.070Z,1010.39
2018-09-06T05:06:10.047Z,1010.4
2018-09-06T05:07:19.507Z,1010.41
2018-09-06T05:08:29.210Z,1010.39
2018-09-06T05:09:39.177Z,1010.44
2018-09-06T05:10:48.876Z,1010.39
2018-09-06T05:11:58.829Z,1010.46
2018-09-06T05:13:08.797Z,1010.45
2018-09-06T05:14:18.511Z,1010.45
2018-09-06T05:15:28.243Z,1010.47
2018-09-06T05:16:38.203Z,1010.46
2018-09-06T05:17:48.160Z,1010.44
2018-09-06T05:18:58.135Z,1010.44
2018-09-06T05:20:08.108Z,1010.44
2018-09-06T05:21:18.091Z,1010.46
2018-09-06T05:22:27.800Z,1010.5
2018-09-06T05:23:37.811Z,1010.48
2018-09-06T05:24:47.790Z,1010.52
2018-09-06T05:25:57.761Z,1010.5
2018-09-06T05:27:07.736Z,1010.55
2018-09-06T05:28:17.703Z,1010.52
2018-09-06T05:29:27.407Z,1010.53
2018-09-06T05:30:37.426Z,1010.52
2018-09-06T05:31:47.631Z,1010.52
2018-09-06T05:32:57.602Z,1010.52
2018-09-06T05:34:07.574Z,1010.5
2018-09-06T05:35:17.301Z,1010.49
2018-09-06T05:36:27.377Z,1010.52
2018-09-06T05:37:37.187Z,1010.54
2018-09-06T05:38:47.121Z,1010.49
2018-09-06T05:39:56.566Z,1010.52
2018-09-06T05:41:06.025Z,1010.43
2018-09-06T05:42:15.993Z,1010.44
2018-09-06T05:43:25.724Z,1010.46
2018-09-06T05:44:35.441Z,1010.48
2018-09-06T05:45:45.145Z,1010.47
2018-09-06T05:46:54.852Z,1010.46
2018-09-06T05:48:04.827Z,1010.5
2018-09-06T05:49:14.557Z,1010.49
2018-09-06T05:50:24.533Z,1010.47
2018-09-06T05:51:33.993Z,1010.48
2018-09-06T05:52:43.698Z,1010.48
2018-09-06T05:53:53.158Z,1010.45
2018-09-06T05:55:03.123Z,1010.5
2018-09-06T05:56:12.824Z,1010.46
2018-09-06T05:57:22.792Z,1010.45
2018-09-06T05:58:32.757Z,1010.49
2018-09-06T05:59:42.810Z,1010.44
2018-09-06T06:00:52.417Z,1010.43
2018-09-06T06:02:02.389Z,1010.45
2018-09-06T06:03:12.090Z,1010.47
2018-09-06T06:04:22.054Z,1010.43
2018-09-06T06:05:31.784Z,1010.43
2018-09-06T06:06:41.742Z,1010.41
2018-09-06T06:07:51.440Z,1010.4
2018-09-06T06:09:01.420Z,1010.4
2018-09-06T06:10:11.387Z,1010.41
2018-09-06T06:11:21.355Z,1010.37
2018-09-06T06:12:31.337Z,1010.37
2018-09-06T06:13:41.049Z,1010.38
2018-09-06T06:14:51.007Z,1010.34
2018-09-06T06:16:00.988Z,1010.36
2018-09-06T06:17:10.690Z,1010.39
2018-09-06T06:18:20.659Z,1010.38
2018-09-06T06:19:30.626Z,1010.33
2018-09-06T06:20:40.592Z,1010.33
2018-09-06T06:21:50.562Z,1010.38
2018-09-06T06:23:00.544Z,1010.39
2018-09-06T06:24:10.542Z,1010.35
2018-09-06T06:25:20.506Z,1010.35
2018-09-06T06:26:30.487Z,1010.34
2018-09-06T06:27:40.452Z,1010.35
2018-09-06T06:28:50.171Z,1010.36
2018-09-06T06:30:00.185Z,1010.34
2018-09-06T06:31:09.901Z,1010.35
2018-09-06T06:32:19.654Z,1010.35
2018-09-06T06:33:30.020Z,1010.34
2018-09-06T06:34:39.991Z,1010.31
2018-09-06T06:35:49.948Z,1010.3
2018-09-06T06:36:59.929Z,1010.3
2018-09-06T06:38:09.653Z,1010.34
2018-09-06T06:39:19.653Z,1010.33
2018-09-06T06:40:29.619Z,1010.27
2018-09-06T06:41:39.589Z,1010.29
2018-09-06T06:42:49.571Z,1010.22
2018-09-06T06:43:59.547Z,1010.23
2018-09-06T06:45:09.529Z,1010.22
2018-09-06T06:46:19.505Z,1010.21
2018-09-06T06:47:29.472Z,1010.23
2018-09-06T06:48:38.928Z,1010.24
2018-09-06T06:49:48.909Z,1010.23
2018-09-06T06:50:58.904Z,1010.26
2018-09-06T06:52:08.370Z,1010.25
2018-09-06T06:53:18.085Z,1010.23
2018-09-06T06:54:28.070Z,1010.24
2018-09-06T06:55:38.117Z,1010.25
2018-09-06T06:56:47.837Z,1010.22
2018-09-06T06:57:57.544Z,1010.23
2018-09-06T06:59:07.257Z,1010.25
2018-09-06T07:00:17.263Z,1010.23
2018-09-06T07:01:27.237Z,1010.27
2018-09-06T07:02:36.967Z,1010.23
2018-09-06T07:03:46.750Z,1010.25
2018-09-06T07:04:56.760Z,1010.27
2018-09-06T07:06:06.764Z,1010.25
2018-09-06T07:07:16.819Z,1010.22
2018-09-06T07:08:26.942Z,1010.21
2018-09-06T07:09:36.667Z,1010.22
2018-09-06T07:10:46.676Z,1010.21
2018-09-06T07:11:56.651Z,1010.24
2018-09-06T07:13:06.634Z,1010.26
2018-09-06T07:14:16.597Z,1010.26
2018-09-06T07:15:26.589Z,1010.23
2018-09-06T07:16:36.320Z,1010.23
2018-09-06T07:17:46.282Z,1010.22
2018-09-06T07:18:56.293Z,1010.17
2018-09-06T07:20:06.273Z,1010.21
2018-09-06T07:21:16.257Z,1010.21
2018-09-06T07:22:26.245Z,1010.19
2018-09-06T07:23:36.204Z,1010.21
2018-09-06T07:24:46.163Z,1010.21
2018-09-06T07:25:56.141Z,1010.19
2018-09-06T07:27:05.860Z,1010.15
2018-09-06T07:28:15.825Z,1010.18
2018-09-06T07:29:25.552Z,1010.15
2018-09-06T07:30:35.808Z,1010.18
2018-09-06T07:31:46.054Z,1010.18
2018-09-06T07:32:56.027Z,1010.15
2018-09-06T07:34:06.013Z,1010.14
2018-09-06T07:35:16.024Z,1010.17
2018-09-06T07:36:26.132Z,1010.15
2018-09-06T07:37:35.874Z,1010.17
2018-09-06T07:38:45.850Z,1010.16
2018-09-06T07:39:55.829Z,1010.15
2018-09-06T07:41:05.801Z,1010.17
2018-09-06T07:42:16.050Z,1010.21
2018-09-06T07:43:25.508Z,1010.17
2018-09-06T07:44:35.218Z,1010.2
2018-09-06T07:45:45.184Z,1010.14
2018-09-06T07:46:54.713Z,1010.15
2018-09-06T07:48:04.577Z,1010.14
2018-09-06T07:49:14.573Z,1010.14
2018-09-06T07:50:24.279Z,1010.12
2018-09-06T07:51:34.087Z,1010.16
2018-09-06T07:52:44.243Z,1010.1
2018-09-06T07:53:54.244Z,1010.12
2018-09-06T07:55:04.228Z,1010.11
2018-09-06T07:56:14.218Z,1010.1
2018-09-06T07:57:23.965Z,1010.16
2018-09-06T07:58:34.271Z,1010.15
2018-09-06T07:59:44.315Z,1010.12
2018-09-06T08:00:54.335Z,1010.14
2018-09-06T08:02:04.093Z,1010.12
2018-09-06T08:03:14.165Z,1010.17
2018-09-06T08:04:24.142Z,1010.12
2018-09-06T08:05:34.380Z,1010.13
2018-09-06T08:06:44.393Z,1010.08
2018-09-06T08:07:54.410Z,1010.09
2018-09-06T08:09:04.417Z,1010.09
2018-09-06T08:10:14.846Z,1010.1
2018-09-06T08:11:24.569Z,1010.09
2018-09-06T08:12:34.559Z,1010.11
2018-09-06T08:13:44.008Z,1010.09
2018-09-06T08:14:54.021Z,1010.14
2018-09-06T08:16:04.019Z,1010.14
2018-09-06T08:17:13.999Z,1010.17
2018-09-06T08:18:23.991Z,1010.14
2018-09-06T08:19:33.999Z,1010.12
2018-09-06T08:20:44.009Z,1010.12
2018-09-06T08:21:53.758Z,1010.16
2018-09-06T08:23:03.751Z,1010.13
2018-09-06T08:24:13.533Z,1010.12
2018-09-06T08:25:23.516Z,1010.11
2018-09-06T08:26:33.498Z,1010.06
2018-09-06T08:27:43.217Z,1010.09
2018-09-06T08:28:53.227Z,1010.05
2018-09-06T08:30:02.734Z,1010.05
2018-09-06T08:31:12.514Z,1010.03
2018-09-06T08:32:22.527Z,1010.03
2018-09-06T08:33:32.270Z,1010.02
2018-09-06T08:34:42.273Z,1010.03
2018-09-06T08:35:52.254Z,1010.01
2018-09-06T08:37:02.251Z,1010.01
2018-09-06T08:38:11.971Z,1010.02
2018-09-06T08:39:21.956Z,1010.03
2018-09-06T08:40:31.929Z,1010.05
2018-09-06T08:41:41.908Z,1009.98
2018-09-06T08:42:51.661Z,1010.03
2018-09-06T08:44:01.390Z,1010.05
2018-09-06T08:45:11.400Z,1010.02
2018-09-06T08:46:21.592Z,1010.03
2018-09-06T08:47:31.633Z,1010.03
2018-09-06T08:48:41.597Z,1010
2018-09-06T08:49:51.343Z,1010.03
2018-09-06T08:51:01.351Z,1010.03
2018-09-06T08:52:11.284Z,1010.01
2018-09-06T08:53:21.541Z,1009.99
2018-09-06T08:54:31.525Z,1010.02
2018-09-06T08:55:41.264Z,1009.96
2018-09-06T08:56:51.269Z,1009.94
2018-09-06T08:58:01.007Z,1009.94
2018-09-06T08:59:10.748Z,1009.92
2018-09-06T09:00:20.751Z,1009.92
2018-09-06T09:01:30.771Z,1009.91
2018-09-06T09:02:40.877Z,1009.93
2018-09-06T09:03:51.416Z,1009.97
2018-09-06T09:05:00.904Z,1009.96
2018-09-06T09:06:10.675Z,1009.97
2018-09-06T09:07:20.705Z,1009.93
2018-09-06T09:08:30.851Z,1009.94
2018-09-06T09:09:41.099Z,1009.89
2018-09-06T09:10:51.118Z,1009.89
2018-09-06T09:12:00.588Z,1009.86
2018-09-06T09:13:10.743Z,1009.9
2018-09-06T09:14:21.157Z,1009.83
2018-09-06T09:15:30.884Z,1009.86
2018-09-06T09:16:40.612Z,1009.84
2018-09-06T09:17:50.614Z,1009.87
2018-09-06T09:19:00.632Z,1009.83
2018-09-06T09:20:10.606Z,1009.85
2018-09-06T09:21:20.342Z,1009.84
2018-09-06T09:22:30.474Z,1009.77
2018-09-06T09:23:40.473Z,1009.81
2018-09-06T09:24:50.445Z,1009.76
2018-09-06T09:25:59.907Z,1009.71
2018-09-06T09:27:09.877Z,1009.73
2018-09-06T09:28:19.864Z,1009.72
2018-09-06T09:29:29.893Z,1009.71
2018-09-06T09:30:39.925Z,1009.69
2018-09-06T09:31:50.166Z,1009.65
2018-09-06T09:32:59.883Z,1009.62
2018-09-06T09:34:09.633Z,1009.66
2018-09-06T09:35:19.352Z,1009.62
2018-09-06T09:36:29.090Z,1009.64
2018-09-06T09:37:38.947Z,1009.61
2018-09-06T09:38:48.693Z,1009.61
2018-09-06T09:39:58.416Z,1009.6
2018-09-06T09:41:08.405Z,1009.53
2018-09-06T09:42:18.143Z,1009.56
2018-09-06T09:43:28.128Z,1009.6
2018-09-06T09:44:38.114Z,1009.6
2018-09-06T09:45:48.094Z,1009.61
2018-09-06T09:48:06.662Z,1009.62
2018-09-06T09:49:16.427Z,1009.61
2018-09-06T09:51:34.810Z,1009.56
2018-09-06T09:52:45.146Z,1009.56
2018-09-06T09:53:55.122Z,1009.52
2018-09-06T09:55:04.890Z,1009.52
2018-09-06T09:56:14.870Z,1009.52
2018-09-06T09:57:24.355Z,1009.5
2018-09-06T09:58:34.383Z,1009.42
2018-09-06T09:59:44.360Z,1009.42
2018-09-06T10:00:54.364Z,1009.4
2018-09-06T10:02:04.088Z,1009.4
2018-09-06T10:03:14.105Z,1009.41
2018-09-06T10:04:24.099Z,1009.35
2018-09-06T10:05:34.091Z,1009.33
2018-09-06T10:06:44.071Z,1009.34
2018-09-06T10:07:54.056Z,1009.37
2018-09-06T10:09:03.805Z,1009.33
2018-09-06T10:10:13.561Z,1009.31
2018-09-06T10:11:23.566Z,1009.32
2018-09-06T10:12:33.596Z,1009.32
2018-09-06T10:13:43.328Z,1009.29
2018-09-06T10:14:53.395Z,1009.26
2018-09-06T10:16:04.252Z,1009.25
2018-09-06T10:17:14.631Z,1009.25
2018-09-06T10:18:24.771Z,1009.24
2018-09-06T10:19:34.477Z,1009.18
2018-09-06T10:20:44.207Z,1009.15
2018-09-06T10:21:53.959Z,1009.14
2018-09-06T10:23:03.420Z,1009.14
2018-09-06T10:24:13.411Z,1009.08
2018-09-06T10:25:23.134Z,1009.12
2018-09-06T10:26:33.148Z,1009.12
2018-09-06T10:27:43.167Z,1009.12
2018-09-06T10:28:52.648Z,1009.14
2018-09-06T10:30:02.639Z,1009.1
2018-09-06T10:31:12.361Z,1009.14
2018-09-06T10:32:22.366Z,1009.12
2018-09-06T10:33:32.345Z,1009.11
2018-09-06T10:34:42.382Z,1009.07
2018-09-06T10:35:52.142Z,1009.09
2018-09-06T10:37:02.221Z,1009.09
2018-09-06T10:38:12.264Z,1009.06
2018-09-06T10:39:22.358Z,1009.01
2018-09-06T10:40:32.911Z,1008.98
2018-09-06T10:41:43.460Z,1008.97
2018-09-06T10:42:53.187Z,1008.93
2018-09-06T10:44:03.189Z,1008.89
2018-09-06T10:45:12.917Z,1008.97
2018-09-06T10:46:22.396Z,1008.97
2018-09-06T10:47:32.627Z,1008.97
2018-09-06T10:48:42.393Z,1008.97
2018-09-06T10:49:52.406Z,1008.89
2018-09-06T10:51:02.198Z,1008.97
2018-09-06T10:52:11.678Z,1008.94
2018-09-06T10:53:21.404Z,1008.92
2018-09-06T10:54:31.400Z,1008.88
2018-09-06T10:55:41.376Z,1008.89
2018-09-06T10:56:50.868Z,1008.94
2018-09-06T10:58:00.588Z,1008.83
2018-09-06T10:59:10.060Z,1008.8
2018-09-06T11:00:20.028Z,1008.84
2018-09-06T11:01:30.075Z,1008.83
2018-09-06T11:02:39.828Z,1008.8
2018-09-06T11:03:49.812Z,1008.78
2018-09-06T11:05:00.008Z,1008.76
2018-09-06T11:06:10.004Z,1008.69
2018-09-06T11:07:19.980Z,1008.78
2018-09-06T11:08:29.972Z,1008.76
2018-09-06T11:09:39.461Z,1008.76
2018-09-06T11:10:49.198Z,1008.77
2018-09-06T11:11:59.012Z,1008.74
2018-09-06T11:13:08.998Z,1008.75
2018-09-06T11:14:18.980Z,1008.66
2018-09-06T11:15:28.981Z,1008.6
2018-09-06T11:16:38.740Z,1008.69
2018-09-06T11:17:48.792Z,1008.67
2018-09-06T11:18:58.707Z,1008.63
2018-09-06T11:20:08.692Z,1008.66
2018-09-06T11:21:18.206Z,1008.63
2018-09-06T11:22:29.121Z,1008.66
2018-09-06T11:23:40.555Z,1008.71
2018-09-06T11:24:50.576Z,1008.61
2018-09-06T11:26:00.289Z,1008.61
2018-09-06T11:27:10.265Z,1008.66
2018-09-06T11:28:20.268Z,1008.7
2018-09-06T11:29:30.231Z,1008.63
2018-09-06T11:30:39.979Z,1008.65
2018-09-06T11:31:49.982Z,1008.66
2018-09-06T11:32:59.955Z,1008.62
2018-09-06T11:34:10.042Z,1008.64
2018-09-06T11:35:20.090Z,1008.52
2018-09-06T11:36:30.064Z,1008.52
2018-09-06T11:37:40.071Z,1008.45
2018-09-06T11:38:50.041Z,1008.52
2018-09-06T11:40:00.044Z,1008.54
2018-09-06T11:41:10.702Z,1008.48
2018-09-06T11:42:20.735Z,1008.48
2018-09-06T11:43:30.780Z,1008.49
2018-09-06T11:44:40.774Z,1008.47
2018-09-06T11:45:50.492Z,1008.4
2018-09-06T11:47:00.351Z,1008.43
2018-09-06T11:48:10.642Z,1008.36
2018-09-06T11:49:20.632Z,1008.37
2018-09-06T11:50:30.667Z,1008.35
2018-09-06T11:51:40.412Z,1008.32
2018-09-06T11:52:50.419Z,1008.31
2018-09-06T11:54:00.402Z,1008.3
2018-09-06T11:55:10.396Z,1008.28
2018-09-06T11:56:20.400Z,1008.23
2018-09-06T11:57:30.144Z,1008.25
2018-09-06T11:58:40.141Z,1008.24
2018-09-06T11:59:50.128Z,1008.18
2018-09-06T12:00:59.860Z,1008.2
2018-09-06T12:02:09.961Z,1008.23
2018-09-06T12:03:20.363Z,1008.21
2018-09-06T12:04:30.087Z,1008.25
2018-09-06T12:05:40.070Z,1008.21
2018-09-06T12:06:49.796Z,1008.19
2018-09-06T12:07:59.774Z,1008.18
2018-09-06T12:09:09.760Z,1008.15
2018-09-06T12:10:19.488Z,1008.14
2018-09-06T12:11:29.479Z,1008.09
2018-09-06T12:12:39.461Z,1008.11
2018-09-06T12:13:49.254Z,1008.11
2018-09-06T12:14:59.129Z,1008.07
2018-09-06T12:16:09.118Z,1008.08
2018-09-06T12:17:19.102Z,1008.06
2018-09-06T12:18:29.105Z,1008.04
2018-09-06T12:19:39.090Z,1008.08
2018-09-06T12:20:49.137Z,1008.15
2018-09-06T12:21:58.910Z,1008.13
2018-09-06T12:23:09.096Z,1008.05
2018-09-06T12:24:18.884Z,1008.09
2018-09-06T12:25:28.887Z,1008.05
2018-09-06T12:26:38.592Z,1008
2018-09-06T12:27:48.314Z,1008.02
2018-09-06T12:28:58.309Z,1008.01
2018-09-06T12:30:08.293Z,1008.05
2018-09-06T12:31:18.293Z,1008.03
2018-09-06T12:32:28.332Z,1007.97
2018-09-06T12:33:38.726Z,1007.97
2018-09-06T12:34:49.105Z,1008
2018-09-06T12:35:59.292Z,1007.95
2018-09-06T12:37:09.323Z,1007.92
2018-09-06T12:38:19.529Z,1007.9
2018-09-06T12:39:29.534Z,1007.94
2018-09-06T12:40:39.540Z,1007.97
2018-09-06T12:41:49.545Z,1007.96
2018-09-06T12:42:59.539Z,1007.99
2018-09-06T12:44:09.261Z,1007.97
2018-09-06T12:45:19.237Z,1007.92
2018-09-06T12:46:29.245Z,1007.9
2018-09-06T12:47:39.228Z,1007.85
2018-09-06T12:48:48.976Z,1007.91
2018-09-06T12:49:58.732Z,1007.79
2018-09-06T12:51:08.814Z,1007.8
2018-09-06T12:52:18.566Z,1007.87
2018-09-06T12:53:28.550Z,1007.83
2018-09-06T12:54:38.532Z,1007.77
2018-09-06T12:55:48.501Z,1007.76
2018-09-06T12:56:58.236Z,1007.74
2018-09-06T12:58:07.971Z,1007.72
2018-09-06T12:59:17.946Z,1007.73
2018-09-06T13:00:27.668Z,1007.73
2018-09-06T13:01:37.648Z,1007.75
2018-09-06T13:02:47.640Z,1007.73
2018-09-06T13:03:57.629Z,1007.7
2018-09-06T13:05:07.354Z,1007.69
2018-09-06T13:06:17.346Z,1007.76
2018-09-06T13:07:27.315Z,1007.66
2018-09-06T13:08:37.288Z,1007.63
2018-09-06T13:09:47.017Z,1007.63
2018-09-06T13:10:56.993Z,1007.58
2018-09-06T13:12:06.705Z,1007.63
2018-09-06T13:13:16.683Z,1007.52
2018-09-06T13:14:26.413Z,1007.46
2018-09-06T13:15:36.388Z,1007.5
2018-09-06T13:16:46.378Z,1007.46
2018-09-06T13:17:56.415Z,1007.41
2018-09-06T13:19:06.408Z,1007.43
2018-09-06T13:20:16.396Z,1007.44
2018-09-06T13:21:26.126Z,1007.43
2018-09-06T13:22:36.121Z,1007.39
2018-09-06T13:23:46.101Z,1007.42
2018-09-06T13:24:56.085Z,1007.41
2018-09-06T13:26:06.081Z,1007.36
2018-09-06T13:27:16.089Z,1007.33
2018-09-06T13:28:26.158Z,1007.33
2018-09-06T13:29:36.135Z,1007.37
2018-09-06T13:30:46.118Z,1007.36
2018-09-06T13:31:56.092Z,1007.34
2018-09-06T13:33:05.542Z,1007.34
2018-09-06T13:34:15.254Z,1007.33
2018-09-06T13:35:25.240Z,1007.33
2018-09-06T13:36:35.517Z,1007.28
2018-09-06T13:37:45.245Z,1007.32
2018-09-06T13:38:54.961Z,1007.31
2018-09-06T13:40:04.946Z,1007.3
2018-09-06T13:41:14.936Z,1007.32
2018-09-06T13:42:24.662Z,1007.29
2018-09-06T13:43:34.735Z,1007.21
2018-09-06T13:44:44.655Z,1007.23
2018-09-06T13:45:54.363Z,1007.2
2018-09-06T13:47:04.345Z,1007.25
2018-09-06T13:48:14.359Z,1007.26
2018-09-06T13:49:24.324Z,1007.24
2018-09-06T13:50:34.051Z,1007.19
2018-09-06T13:51:44.035Z,1007.18
2018-09-06T13:52:54.038Z,1007.18
2018-09-06T13:54:03.775Z,1007.15
2018-09-06T13:55:13.502Z,1007.11
2018-09-06T13:56:23.219Z,1007.12
2018-09-06T13:57:33.216Z,1007.08
2018-09-06T13:58:43.204Z,1007.04
2018-09-06T13:59:53.190Z,1007.05
2018-09-06T14:01:02.946Z,1007.07
2018-09-06T14:02:12.925Z,1007.07
2018-09-06T14:03:22.652Z,1007.03
2018-09-06T14:04:32.631Z,1007.05
2018-09-06T14:05:42.775Z,1007.04
2018-09-06T14:06:53.081Z,1007.08
2018-09-06T14:08:03.100Z,1007.04
2018-09-06T14:09:12.552Z,1006.98
2018-09-06T14:10:22.533Z,1006.96
2018-09-06T14:11:32.525Z,1006.95